createdAt,value
2023-06-30T00:01:56.911Z,16.57
2023-06-30T00:03:59.310Z,14.27
2023-06-30T00:06:01.564Z,15.27
2023-06-30T00:08:04.572Z,14.43
2023-06-30T00:10:08.005Z,14.87
2023-06-30T00:12:10.607Z,14.90
2023-06-30T00:14:12.741Z,15.80
2023-06-30T00:16:14.803Z,15.73
2023-06-30T00:18:16.897Z,16.00
2023-06-30T00:20:19.092Z,16.17
2023-06-30T00:22:21.179Z,14.47
2023-06-30T00:24:23.246Z,15.10
2023-06-30T00:26:25.294Z,16.17
2023-06-30T00:28:27.348Z,15.17
2023-06-30T00:30:30.602Z,17.20
2023-06-30T00:32:34.114Z,16.33
2023-06-30T00:34:36.371Z,15.50
2023-06-30T00:36:38.546Z,16.10
2023-06-30T00:38:40.770Z,17.17
2023-06-30T00:40:43.570Z,16.67
2023-06-30T00:42:45.707Z,16.77
2023-06-30T00:44:47.911Z,17.57
2023-06-30T00:46:50.137Z,15.80
2023-06-30T00:48:52.309Z,16.87
2023-06-30T00:50:54.418Z,16.27
2023-06-30T00:52:56.902Z,16.30
2023-06-30T00:54:59.932Z,16.53
2023-06-30T00:57:06.478Z,17.67
2023-06-30T00:59:08.591Z,17.97
2023-06-30T01:01:22.485Z,16.47
2023-06-30T01:03:32.039Z,17.47
2023-06-30T01:06:01.670Z,16.77
2023-06-30T01:08:14.091Z,17.63
2023-06-30T01:10:18.897Z,16.87
2023-06-30T01:12:21.443Z,17.37
2023-06-30T01:14:23.844Z,17.57
2023-06-30T01:16:27.610Z,17.30
2023-06-30T01:18:33.717Z,17.53
2023-06-30T01:20:36.896Z,17.40
2023-06-30T01:22:52.905Z,18.90
2023-06-30T01:24:59.781Z,17.70
2023-06-30T01:27:03.076Z,18.03
2023-06-30T01:29:08.058Z,17.87
2023-06-30T01:31:12.436Z,18.70
2023-06-30T01:33:17.315Z,18.10
2023-06-30T01:35:19.719Z,17.37
2023-06-30T01:37:21.854Z,16.80
2023-06-30T01:39:25.195Z,16.67
2023-06-30T01:41:27.698Z,17.87
2023-06-30T01:43:30.732Z,17.20
2023-06-30T01:45:33.281Z,19.50
2023-06-30T01:47:35.525Z,17.50
2023-06-30T01:49:56.987Z,18.33
2023-06-30T01:52:19.067Z,17.73
2023-06-30T01:54:39.580Z,18.20
2023-06-30T01:56:51.061Z,17.47
2023-06-30T01:58:53.209Z,17.13
2023-06-30T02:00:55.429Z,17.47
2023-06-30T02:02:58.699Z,18.00
2023-06-30T02:05:00.884Z,18.77
2023-06-30T02:07:03.309Z,18.43
2023-06-30T02:09:05.777Z,17.60
2023-06-30T02:11:07.944Z,19.60
2023-06-30T02:13:10.101Z,18.57
2023-06-30T02:15:13.600Z,18.77
2023-06-30T02:17:15.839Z,18.87
2023-06-30T02:19:25.270Z,19.90
2023-06-30T02:21:27.447Z,19.40
2023-06-30T02:23:31.307Z,18.37
2023-06-30T02:25:33.408Z,18.07
2023-06-30T02:27:35.468Z,18.93
2023-06-30T02:29:37.549Z,18.97
2023-06-30T02:31:41.486Z,19.23
2023-06-30T02:33:43.592Z,18.90
2023-06-30T02:35:45.778Z,20.53
2023-06-30T02:37:49.652Z,20.50
2023-06-30T02:39:52.629Z,21.13
2023-06-30T02:41:54.703Z,20.17
2023-06-30T02:43:56.832Z,20.87
2023-06-30T02:45:59.048Z,21.50
2023-06-30T02:48:03.979Z,20.40
2023-06-30T02:50:07.004Z,20.80
2023-06-30T02:52:11.046Z,20.53
2023-06-30T02:54:13.214Z,19.90
2023-06-30T02:56:15.401Z,19.80
2023-06-30T02:58:17.507Z,21.23
2023-06-30T03:00:20.219Z,21.47
2023-06-30T03:02:22.766Z,22.47
2023-06-30T03:04:25.129Z,23.10
2023-06-30T03:06:27.219Z,20.80
2023-06-30T03:08:31.119Z,19.33
2023-06-30T03:10:34.355Z,17.97
2023-06-30T03:12:36.542Z,18.83
2023-06-30T03:14:38.571Z,20.07
2023-06-30T03:16:59.286Z,19.60
2023-06-30T03:19:19.972Z,17.83
2023-06-30T03:21:22.888Z,16.50
2023-06-30T03:23:25.691Z,18.17
2023-06-30T03:25:27.769Z,18.03
2023-06-30T03:27:31.888Z,19.60
2023-06-30T03:29:33.925Z,20.47
2023-06-30T03:31:36.847Z,18.63
2023-06-30T03:33:38.932Z,18.93
2023-06-30T03:35:41.838Z,19.03
2023-06-30T03:37:43.899Z,19.07
2023-06-30T03:39:46.213Z,18.03
2023-06-30T03:41:48.607Z,18.00
2023-06-30T03:43:50.676Z,18.53
2023-06-30T03:45:52.790Z,17.67
2023-06-30T03:47:56.247Z,18.80
2023-06-30T03:49:58.572Z,18.30
2023-06-30T03:52:02.722Z,21.10
2023-06-30T03:54:05.835Z,19.00
2023-06-30T03:56:09.942Z,20.00
2023-06-30T03:58:11.954Z,22.50
2023-06-30T04:00:15.046Z,21.30
2023-06-30T04:02:17.204Z,22.30
2023-06-30T04:04:19.455Z,22.40
2023-06-30T04:06:21.706Z,23.57
2023-06-30T04:08:24.146Z,22.73
2023-06-30T04:10:26.683Z,23.57
2023-06-30T04:12:28.780Z,24.10
2023-06-30T04:14:30.928Z,23.40
2023-06-30T04:16:33.002Z,26.20
2023-06-30T04:18:35.145Z,22.70
2023-06-30T04:20:37.183Z,24.07
2023-06-30T04:22:39.324Z,22.67
2023-06-30T04:24:41.459Z,22.70
2023-06-30T04:26:43.626Z,22.83
2023-06-30T04:28:46.811Z,24.80
2023-06-30T04:30:48.796Z,22.10
2023-06-30T04:32:50.997Z,23.03
2023-06-30T04:34:53.052Z,22.00
2023-06-30T04:36:55.230Z,22.70
2023-06-30T04:38:58.504Z,23.80
2023-06-30T04:41:00.912Z,22.03
2023-06-30T04:43:03.620Z,23.50
2023-06-30T04:45:06.338Z,22.20
2023-06-30T04:47:09.713Z,21.00
2023-06-30T04:49:11.744Z,21.20
2023-06-30T04:51:14.822Z,21.93
2023-06-30T04:53:17.029Z,21.07
2023-06-30T04:55:19.178Z,20.87
2023-06-30T04:57:22.413Z,23.70
2023-06-30T04:59:25.006Z,22.43
2023-06-30T05:01:27.158Z,22.07
2023-06-30T05:03:29.340Z,22.80
2023-06-30T05:05:32.481Z,21.40
2023-06-30T05:07:34.850Z,21.80
2023-06-30T05:09:37.189Z,21.30
2023-06-30T05:11:39.228Z,20.73
2023-06-30T05:13:41.383Z,20.73
2023-06-30T05:15:43.830Z,21.43
2023-06-30T05:17:46.302Z,20.00
2023-06-30T05:19:48.570Z,20.60
2023-06-30T05:21:52.121Z,20.00
2023-06-30T05:23:54.445Z,21.37
2023-06-30T05:25:56.543Z,20.33
2023-06-30T05:27:58.750Z,21.30
2023-06-30T05:30:00.937Z,23.23
2023-06-30T05:32:03.282Z,21.53
2023-06-30T05:34:05.438Z,22.20
2023-06-30T05:36:07.575Z,22.20
2023-06-30T05:38:09.612Z,21.00
2023-06-30T05:40:12.214Z,21.77
2023-06-30T05:42:14.531Z,20.40
2023-06-30T05:44:16.741Z,18.70
2023-06-30T05:46:18.981Z,17.73
2023-06-30T05:48:21.321Z,19.43
2023-06-30T05:50:24.489Z,19.10
2023-06-30T05:52:28.300Z,19.67
2023-06-30T05:54:30.487Z,19.67
2023-06-30T05:56:32.744Z,19.37
2023-06-30T05:58:36.504Z,19.57
2023-06-30T06:00:38.666Z,18.47
2023-06-30T06:02:40.867Z,20.10
2023-06-30T06:04:43.181Z,20.40
2023-06-30T06:06:45.273Z,19.43
2023-06-30T06:08:50.205Z,18.30
2023-06-30T06:10:52.313Z,19.87
2023-06-30T06:12:54.407Z,19.40
2023-06-30T06:14:56.592Z,19.57
2023-06-30T06:16:58.812Z,20.60
2023-06-30T06:19:01.126Z,19.57
2023-06-30T06:21:05.056Z,17.47
2023-06-30T06:23:07.165Z,20.47
2023-06-30T06:25:11.189Z,19.30
2023-06-30T06:27:13.254Z,20.67
2023-06-30T06:29:20.237Z,19.20
2023-06-30T06:31:25.860Z,17.40
2023-06-30T06:33:28.113Z,19.50
2023-06-30T06:35:30.128Z,18.80
2023-06-30T06:37:32.191Z,19.07
2023-06-30T06:39:34.233Z,20.07
2023-06-30T06:41:36.297Z,19.20
2023-06-30T06:43:38.364Z,20.67
2023-06-30T06:45:42.824Z,19.93
2023-06-30T06:48:23.038Z,19.50
2023-06-30T06:50:25.157Z,19.60
2023-06-30T06:52:27.333Z,19.30
2023-06-30T06:54:29.403Z,20.47
2023-06-30T06:56:31.602Z,21.00
2023-06-30T06:58:36.711Z,21.43
2023-06-30T07:00:39.143Z,20.10
2023-06-30T07:02:41.320Z,19.60
2023-06-30T07:04:44.586Z,21.53
2023-06-30T07:06:46.705Z,20.17
2023-06-30T07:08:50.079Z,21.10
2023-06-30T07:10:52.439Z,19.80
2023-06-30T07:12:54.870Z,20.37
2023-06-30T07:14:57.037Z,20.40
2023-06-30T07:16:59.253Z,19.10
2023-06-30T07:19:04.001Z,19.57
2023-06-30T07:21:06.194Z,18.80
2023-06-30T07:23:08.391Z,21.17
2023-06-30T07:25:10.602Z,20.70
2023-06-30T07:27:12.649Z,20.03
2023-06-30T07:29:14.813Z,20.07
2023-06-30T07:31:17.113Z,20.03
2023-06-30T07:33:19.188Z,19.80
2023-06-30T07:35:22.399Z,20.17
2023-06-30T07:37:24.481Z,18.00
2023-06-30T07:39:26.608Z,20.77
2023-06-30T07:41:36.052Z,21.53
2023-06-30T07:43:38.477Z,20.23
2023-06-30T07:45:40.559Z,19.73
2023-06-30T07:47:43.808Z,19.13
2023-06-30T07:49:45.936Z,19.53
2023-06-30T07:51:48.275Z,20.37
2023-06-30T07:53:50.410Z,18.63
2023-06-30T07:55:52.757Z,20.23
2023-06-30T07:57:55.123Z,18.80
2023-06-30T07:59:58.576Z,18.60
2023-06-30T08:02:00.936Z,19.30
2023-06-30T08:04:03.114Z,19.10
2023-06-30T08:06:05.863Z,20.00
2023-06-30T08:08:08.289Z,20.30
2023-06-30T08:10:10.651Z,21.00
2023-06-30T08:12:12.667Z,20.40
2023-06-30T08:14:14.752Z,19.73
2023-06-30T08:16:16.928Z,20.13
2023-06-30T08:18:30.262Z,20.43
2023-06-30T08:20:37.074Z,21.80
2023-06-30T08:22:39.510Z,20.67
2023-06-30T08:24:42.737Z,20.87
2023-06-30T08:26:44.930Z,20.13
2023-06-30T08:28:47.091Z,21.57
2023-06-30T08:30:49.494Z,20.60
2023-06-30T08:32:51.885Z,20.00
2023-06-30T08:34:54.076Z,21.70
2023-06-30T08:36:56.779Z,20.60
2023-06-30T08:38:58.968Z,21.93
2023-06-30T08:41:01.643Z,24.37
2023-06-30T08:43:15.401Z,20.23
2023-06-30T08:45:19.604Z,21.37
2023-06-30T08:47:26.665Z,22.73
2023-06-30T08:49:30.838Z,23.10
2023-06-30T08:51:33.299Z,22.67
2023-06-30T08:53:35.346Z,24.20
2023-06-30T08:55:37.513Z,22.13
2023-06-30T08:57:42.459Z,21.70
2023-06-30T08:59:45.184Z,21.50
2023-06-30T09:01:47.548Z,23.07
2023-06-30T09:03:49.775Z,21.77
2023-06-30T09:05:55.182Z,21.87
2023-06-30T09:07:58.501Z,21.90
2023-06-30T09:10:03.856Z,24.47
2023-06-30T09:12:06.403Z,22.10
2023-06-30T09:14:09.431Z,22.47
2023-06-30T09:16:19.116Z,21.67
2023-06-30T09:18:21.744Z,21.43
2023-06-30T09:20:27.447Z,21.57
2023-06-30T09:22:51.992Z,21.67
2023-06-30T09:24:51.591Z,23.07
2023-06-30T09:26:54.219Z,21.27
2023-06-30T09:28:56.349Z,22.90
2023-06-30T09:31:00.006Z,21.93
2023-06-30T09:33:02.826Z,20.93
2023-06-30T09:35:08.256Z,23.73
2023-06-30T09:37:15.855Z,22.23
2023-06-30T09:39:18.058Z,21.97
2023-06-30T09:41:21.449Z,23.20
2023-06-30T09:43:26.309Z,23.03
2023-06-30T09:45:28.442Z,23.97
2023-06-30T09:47:30.854Z,22.43
2023-06-30T09:49:34.087Z,23.33
2023-06-30T09:51:36.361Z,22.77
2023-06-30T09:53:39.533Z,25.80
2023-06-30T09:55:52.749Z,25.97
2023-06-30T09:57:56.846Z,25.73
2023-06-30T10:00:01.117Z,27.03
2023-06-30T10:02:03.527Z,28.53
2023-06-30T10:04:05.666Z,27.50
2023-06-30T10:06:07.774Z,28.70
2023-06-30T10:08:11.321Z,29.40
2023-06-30T10:10:13.439Z,29.73
2023-06-30T10:12:16.163Z,26.40
2023-06-30T10:14:21.258Z,26.10
2023-06-30T10:16:23.724Z,28.47
2023-06-30T10:18:26.948Z,25.57
2023-06-30T10:20:38.482Z,28.13
2023-06-30T10:22:45.905Z,27.20
2023-06-30T10:24:49.715Z,26.60
2023-06-30T10:26:51.976Z,27.00
2023-06-30T10:28:55.062Z,30.13
2023-06-30T10:30:57.326Z,26.93
2023-06-30T10:32:59.596Z,29.50
2023-06-30T10:35:02.376Z,26.07
2023-06-30T10:37:04.841Z,26.80
2023-06-30T10:39:07.694Z,27.90
2023-06-30T10:41:21.165Z,27.80
2023-06-30T10:43:23.394Z,25.20
2023-06-30T10:45:29.926Z,27.60
2023-06-30T10:47:38.876Z,25.23
2023-06-30T10:49:42.424Z,25.53
2023-06-30T10:51:48.750Z,26.30
2023-06-30T10:53:50.885Z,26.40
2023-06-30T10:55:58.056Z,26.90
2023-06-30T10:58:05.449Z,24.77
2023-06-30T11:00:12.712Z,25.00
2023-06-30T11:02:23.225Z,22.60
2023-06-30T11:04:25.580Z,22.87
2023-06-30T11:06:28.071Z,22.80
2023-06-30T11:08:31.318Z,21.80
2023-06-30T11:10:33.296Z,21.30
2023-06-30T11:12:52.919Z,23.33
2023-06-30T11:14:59.889Z,21.73
2023-06-30T11:17:09.035Z,21.20
2023-06-30T11:19:24.278Z,20.90
2023-06-30T11:21:26.456Z,22.00
2023-06-30T11:23:32.699Z,21.80
2023-06-30T11:25:35.880Z,22.73
2023-06-30T11:27:39.393Z,23.43
2023-06-30T11:29:41.785Z,24.67
2023-06-30T11:31:44.229Z,24.30
2023-06-30T11:33:47.031Z,25.20
2023-06-30T11:35:53.759Z,23.93
2023-06-30T11:37:56.076Z,23.97
2023-06-30T11:39:59.665Z,24.20
2023-06-30T11:42:01.788Z,25.83
2023-06-30T11:44:03.968Z,26.20
2023-06-30T11:46:06.915Z,26.53
2023-06-30T11:48:09.295Z,23.77
2023-06-30T11:50:12.382Z,26.97
2023-06-30T11:52:18.878Z,25.63
2023-06-30T11:54:30.265Z,27.30
2023-06-30T11:56:32.436Z,24.67
2023-06-30T11:58:34.490Z,25.53
2023-06-30T12:00:36.629Z,26.30
2023-06-30T12:02:43.445Z,26.80
2023-06-30T12:04:49.412Z,26.47
2023-06-30T12:06:51.689Z,24.87
2023-06-30T12:08:53.818Z,22.87
2023-06-30T12:10:56.274Z,22.27
2023-06-30T12:12:58.353Z,16.33
2023-06-30T12:15:04.294Z,13.27
2023-06-30T12:17:06.488Z,11.57
2023-06-30T12:19:09.556Z,13.00
2023-06-30T12:21:13.347Z,11.23
2023-06-30T12:23:15.439Z,10.87
2023-06-30T12:25:19.285Z,11.80
2023-06-30T12:27:21.497Z,9.20
2023-06-30T12:29:23.570Z,8.10
2023-06-30T12:31:25.829Z,9.27
2023-06-30T12:33:29.784Z,9.07
2023-06-30T12:35:33.581Z,9.13
2023-06-30T12:37:36.034Z,8.47
2023-06-30T12:39:38.224Z,9.10
2023-06-30T12:41:40.344Z,7.67
2023-06-30T12:43:42.665Z,9.63
2023-06-30T12:45:44.826Z,9.20
2023-06-30T12:47:47.046Z,9.80
2023-06-30T12:49:50.211Z,8.60
2023-06-30T12:51:52.301Z,8.63
2023-06-30T12:53:54.396Z,8.93
2023-06-30T12:55:56.450Z,9.27
2023-06-30T12:57:58.638Z,9.67
2023-06-30T13:00:00.686Z,8.67
2023-06-30T13:02:02.801Z,8.43
2023-06-30T13:04:05.075Z,9.97
2023-06-30T13:06:07.190Z,8.70
2023-06-30T13:08:10.689Z,8.97
2023-06-30T13:10:12.917Z,7.77
2023-06-30T13:12:17.208Z,9.10
2023-06-30T13:14:19.197Z,8.13
2023-06-30T13:16:21.313Z,8.60
2023-06-30T13:18:23.386Z,7.33
2023-06-30T13:20:25.478Z,8.57
2023-06-30T13:22:27.746Z,7.53
2023-06-30T13:24:29.975Z,7.80
2023-06-30T13:26:33.277Z,8.43
2023-06-30T13:28:36.064Z,7.70
2023-06-30T13:30:38.327Z,8.90
2023-06-30T13:32:40.631Z,9.10
2023-06-30T13:34:44.036Z,9.70
2023-06-30T13:36:46.153Z,9.60
2023-06-30T13:38:50.402Z,10.43
2023-06-30T13:40:53.455Z,10.07
2023-06-30T13:42:55.499Z,8.60
2023-06-30T13:44:57.586Z,9.40
2023-06-30T13:46:59.696Z,9.80
2023-06-30T13:49:01.849Z,10.20
2023-06-30T13:51:03.927Z,9.30
2023-06-30T13:53:05.939Z,9.87
2023-06-30T13:55:08.404Z,9.50
2023-06-30T13:57:12.437Z,9.90
2023-06-30T13:59:14.554Z,10.33
2023-06-30T14:01:16.812Z,10.43
2023-06-30T14:03:19.150Z,10.57
2023-06-30T14:05:21.437Z,10.00
2023-06-30T14:07:23.664Z,9.90
2023-06-30T14:09:25.818Z,9.80
2023-06-30T14:11:28.099Z,10.10
2023-06-30T14:13:30.900Z,10.10
2023-06-30T14:15:33.158Z,9.23
2023-06-30T14:17:35.196Z,10.50
2023-06-30T14:19:37.211Z,9.30
2023-06-30T14:21:39.420Z,8.80
2023-06-30T14:23:41.654Z,10.03
2023-06-30T14:25:44.335Z,9.23
2023-06-30T14:27:46.873Z,8.57
2023-06-30T14:29:48.963Z,9.40
2023-06-30T14:31:51.193Z,8.53
2023-06-30T14:33:53.362Z,8.03
2023-06-30T14:35:55.414Z,8.43
2023-06-30T14:37:58.024Z,8.67
2023-06-30T14:40:00.058Z,8.90
2023-06-30T14:42:03.102Z,7.40
2023-06-30T14:44:05.357Z,7.00
2023-06-30T14:46:07.497Z,5.93
2023-06-30T14:48:09.756Z,6.40
2023-06-30T14:50:12.064Z,4.70
2023-06-30T14:52:14.203Z,4.93
2023-06-30T14:54:16.344Z,5.13
2023-06-30T14:56:18.365Z,4.63
2023-06-30T14:58:20.439Z,5.07
2023-06-30T15:00:22.625Z,5.03
2023-06-30T15:02:24.764Z,4.40
2023-06-30T15:04:26.999Z,4.80
2023-06-30T15:06:29.067Z,5.20
2023-06-30T15:08:31.130Z,5.90
2023-06-30T15:10:33.286Z,3.80
2023-06-30T15:12:35.406Z,5.03
2023-06-30T15:14:37.528Z,4.63
2023-06-30T15:16:39.664Z,4.60
2023-06-30T15:18:41.819Z,5.17
2023-06-30T15:20:44.830Z,4.67
2023-06-30T15:22:46.888Z,4.50
2023-06-30T15:24:49.118Z,5.17
2023-06-30T15:26:51.290Z,4.20
2023-06-30T15:28:53.442Z,5.43
2023-06-30T15:30:55.476Z,4.03
2023-06-30T15:32:57.875Z,4.73
2023-06-30T15:34:59.935Z,4.80
2023-06-30T15:37:02.683Z,4.70
2023-06-30T15:39:05.437Z,4.63
2023-06-30T15:41:21.585Z,4.27
2023-06-30T15:43:24.518Z,3.97
2023-06-30T15:45:26.612Z,4.40
2023-06-30T15:47:28.742Z,4.10
2023-06-30T15:49:30.924Z,3.60
2023-06-30T15:51:34.348Z,4.40
2023-06-30T15:53:36.438Z,4.10
2023-06-30T15:55:38.930Z,4.20
2023-06-30T15:57:41.680Z,4.30
2023-06-30T15:59:43.905Z,4.53
2023-06-30T16:01:46.142Z,4.20
2023-06-30T16:03:48.298Z,4.90
2023-06-30T16:05:50.784Z,4.83
2023-06-30T16:07:53.128Z,4.80
2023-06-30T16:09:57.155Z,4.93
2023-06-30T16:11:59.273Z,4.60
2023-06-30T16:14:01.476Z,4.97
2023-06-30T16:16:03.574Z,4.53
2023-06-30T16:18:05.766Z,5.00
2023-06-30T16:20:08.569Z,4.60
2023-06-30T16:22:10.708Z,4.70
2023-06-30T16:24:12.863Z,4.73
2023-06-30T16:26:17.144Z,4.63
2023-06-30T16:28:22.897Z,4.10
2023-06-30T16:30:31.748Z,4.67
2023-06-30T16:32:34.065Z,4.30
2023-06-30T16:34:36.761Z,4.40
2023-06-30T16:36:40.848Z,4.07
2023-06-30T16:38:44.441Z,4.40
2023-06-30T16:40:46.445Z,4.43
2023-06-30T16:42:48.711Z,4.57
2023-06-30T16:44:50.764Z,4.80
2023-06-30T16:46:52.862Z,4.73
2023-06-30T16:48:54.941Z,4.90
2023-06-30T16:50:57.174Z,4.20
2023-06-30T16:52:59.440Z,4.70
2023-06-30T16:55:01.627Z,4.17
2023-06-30T16:57:04.176Z,4.90
2023-06-30T16:59:06.210Z,4.30
2023-06-30T17:01:08.289Z,3.70
2023-06-30T17:03:10.854Z,4.13
2023-06-30T17:05:14.715Z,4.60
2023-06-30T17:07:16.969Z,4.17
2023-06-30T17:09:20.523Z,3.97
2023-06-30T17:11:22.692Z,4.50
2023-06-30T17:13:24.799Z,4.27
2023-06-30T17:15:26.856Z,4.30
2023-06-30T17:17:29.068Z,4.20
2023-06-30T17:19:31.262Z,4.20
2023-06-30T17:21:33.702Z,4.23
2023-06-30T17:23:35.821Z,4.10
2023-06-30T17:25:37.853Z,4.40
2023-06-30T17:27:39.967Z,5.23
2023-06-30T17:29:42.125Z,4.30
2023-06-30T17:31:44.297Z,4.30
2023-06-30T17:33:46.357Z,4.53
2023-06-30T17:35:48.481Z,3.97
2023-06-30T17:37:50.822Z,4.80
2023-06-30T17:39:52.851Z,4.80
2023-06-30T17:41:54.960Z,3.97
2023-06-30T17:43:57.148Z,4.47
2023-06-30T17:45:59.792Z,3.83
2023-06-30T17:48:02.515Z,4.60
2023-06-30T17:50:05.004Z,4.70
2023-06-30T17:52:07.616Z,4.30
2023-06-30T17:54:09.911Z,4.27
2023-06-30T17:56:11.935Z,4.80
2023-06-30T17:58:14.204Z,4.77
2023-06-30T18:00:16.830Z,5.17
2023-06-30T18:02:19.037Z,5.00
2023-06-30T18:04:21.789Z,5.10
2023-06-30T18:06:23.984Z,4.50
2023-06-30T18:08:26.012Z,5.17
2023-06-30T18:10:28.188Z,4.20
2023-06-30T18:12:30.373Z,5.50
2023-06-30T18:14:33.193Z,5.43
2023-06-30T18:16:35.996Z,5.10
2023-06-30T18:18:38.221Z,5.17
2023-06-30T18:20:40.426Z,5.10
2023-06-30T18:22:42.464Z,5.50
2023-06-30T18:24:44.610Z,4.80
2023-06-30T18:26:50.304Z,4.83
2023-06-30T18:28:52.416Z,4.43
2023-06-30T18:30:54.613Z,5.40
2023-06-30T18:32:56.716Z,4.70
2023-06-30T18:34:59.053Z,4.97
2023-06-30T18:37:01.136Z,5.17
2023-06-30T18:39:04.402Z,4.90
2023-06-30T18:41:06.788Z,5.07
2023-06-30T18:43:08.874Z,5.37
2023-06-30T18:45:11.196Z,5.60
2023-06-30T18:47:13.351Z,5.50
2023-06-30T18:49:15.361Z,5.43
2023-06-30T18:51:17.876Z,5.37
2023-06-30T18:53:20.540Z,5.50
2023-06-30T18:55:22.603Z,4.83
2023-06-30T18:57:24.837Z,5.43
2023-06-30T18:59:26.858Z,5.73
2023-06-30T19:01:29.467Z,5.33
2023-06-30T19:03:32.094Z,6.40
2023-06-30T19:05:34.415Z,5.43
2023-06-30T19:07:36.647Z,6.23
2023-06-30T19:09:38.759Z,5.80
2023-06-30T19:11:40.759Z,5.50
2023-06-30T19:13:43.067Z,6.33
2023-06-30T19:15:46.320Z,5.93
2023-06-30T19:17:48.895Z,5.90
2023-06-30T19:19:51.093Z,6.47
2023-06-30T19:21:53.201Z,6.43
2023-06-30T19:23:55.416Z,6.27
2023-06-30T19:25:57.656Z,5.97
2023-06-30T19:27:59.658Z,7.07
2023-06-30T19:30:01.735Z,6.50
2023-06-30T19:32:04.201Z,6.17
2023-06-30T19:34:06.314Z,5.87
2023-06-30T19:36:08.448Z,6.40
2023-06-30T19:38:11.297Z,7.70
2023-06-30T19:40:13.535Z,7.30
2023-06-30T19:42:15.707Z,6.30
2023-06-30T19:44:17.755Z,6.80
2023-06-30T19:46:19.776Z,6.80
2023-06-30T19:48:22.758Z,7.70
2023-06-30T19:50:26.990Z,6.40
2023-06-30T19:52:29.064Z,6.77
2023-06-30T19:54:31.111Z,7.20
2023-06-30T19:56:33.148Z,6.73
2023-06-30T19:58:35.504Z,6.47
2023-06-30T20:00:38.222Z,7.00
2023-06-30T20:02:42.686Z,7.80
2023-06-30T20:04:44.911Z,6.70
2023-06-30T20:06:47.218Z,7.57
2023-06-30T20:08:49.298Z,7.37
2023-06-30T20:10:51.361Z,7.97
2023-06-30T20:12:54.224Z,7.73
2023-06-30T20:14:57.744Z,7.37
2023-06-30T20:16:59.852Z,7.33
2023-06-30T20:19:01.974Z,7.00
2023-06-30T20:21:04.115Z,7.47
2023-06-30T20:23:06.207Z,7.50
2023-06-30T20:25:09.180Z,8.10
2023-06-30T20:27:11.231Z,8.37
2023-06-30T20:29:13.676Z,7.63
2023-06-30T20:31:16.047Z,8.20
2023-06-30T20:33:18.650Z,7.60
2023-06-30T20:35:20.964Z,8.00
2023-06-30T20:37:23.271Z,7.20
2023-06-30T20:39:26.076Z,7.67
2023-06-30T20:41:28.202Z,8.03
2023-06-30T20:43:30.259Z,7.20
2023-06-30T20:45:32.468Z,6.90
2023-06-30T20:47:34.610Z,6.70
2023-06-30T20:49:36.875Z,7.53
2023-06-30T20:51:39.108Z,7.70
2023-06-30T20:53:41.161Z,7.93
2023-06-30T20:55:43.279Z,7.57
2023-06-30T20:57:45.276Z,7.43
2023-06-30T20:59:47.325Z,7.63
2023-06-30T21:01:49.372Z,8.70
2023-06-30T21:03:53.096Z,9.00
2023-06-30T21:05:55.144Z,8.57
2023-06-30T21:07:57.142Z,8.53
2023-06-30T21:09:59.172Z,9.80
2023-06-30T21:12:01.409Z,9.00
2023-06-30T21:14:03.489Z,10.07
2023-06-30T21:16:05.616Z,9.83
2023-06-30T21:18:07.879Z,9.20
2023-06-30T21:20:11.150Z,10.00
2023-06-30T21:22:13.377Z,9.37
2023-06-30T21:24:15.486Z,9.00
2023-06-30T21:26:17.560Z,9.20
2023-06-30T21:28:19.599Z,10.07
2023-06-30T21:30:21.685Z,9.00
2023-06-30T21:32:23.734Z,10.40
2023-06-30T21:34:25.760Z,9.70
2023-06-30T21:36:28.009Z,9.60
2023-06-30T21:38:30.132Z,8.70
2023-06-30T21:40:32.307Z,9.77
2023-06-30T21:42:34.578Z,9.20
2023-06-30T21:44:36.686Z,8.87
2023-06-30T21:46:39.020Z,9.67
2023-06-30T21:48:41.566Z,9.50
2023-06-30T21:50:43.917Z,9.83
2023-06-30T21:52:46.006Z,9.80
2023-06-30T21:54:49.096Z,9.73
2023-06-30T21:56:51.529Z,9.00
2023-06-30T21:58:53.623Z,10.03
2023-06-30T22:00:55.914Z,9.67
2023-06-30T22:02:58.437Z,10.87
2023-06-30T22:05:00.832Z,10.30
2023-06-30T22:07:03.107Z,9.67
2023-06-30T22:09:15.292Z,9.97
2023-06-30T22:11:18.839Z,9.77
2023-06-30T22:13:20.991Z,10.60
2023-06-30T22:15:25.086Z,10.50
2023-06-30T22:17:27.292Z,9.83
2023-06-30T22:19:29.346Z,10.20
2023-06-30T22:21:31.552Z,10.10
2023-06-30T22:23:33.558Z,11.30
2023-06-30T22:25:35.719Z,10.67
2023-06-30T22:27:37.793Z,11.13
2023-06-30T22:29:40.055Z,10.73
2023-06-30T22:31:42.209Z,11.40
2023-06-30T22:33:44.508Z,11.30
2023-06-30T22:35:46.685Z,11.00
2023-06-30T22:37:48.852Z,11.27
2023-06-30T22:39:50.951Z,12.23
2023-06-30T22:41:52.948Z,10.93
2023-06-30T22:43:54.939Z,10.77
2023-06-30T22:45:57.016Z,11.43
2023-06-30T22:47:59.118Z,10.60
2023-06-30T22:50:01.804Z,11.50
2023-06-30T22:52:04.398Z,12.17
2023-06-30T22:54:06.427Z,10.80
2023-06-30T22:56:08.848Z,11.00
2023-06-30T22:58:10.920Z,11.50
2023-06-30T23:00:13.541Z,11.10
2023-06-30T23:02:15.612Z,11.20
2023-06-30T23:04:17.852Z,11.77
2023-06-30T23:06:20.073Z,10.60
2023-06-30T23:08:22.167Z,11.53
2023-06-30T23:10:24.224Z,10.93
2023-06-30T23:12:26.326Z,10.30
2023-06-30T23:14:28.308Z,10.60
2023-06-30T23:16:31.348Z,10.83
2023-06-30T23:18:39.242Z,11.83
2023-06-30T23:20:41.477Z,10.77
2023-06-30T23:22:50.855Z,10.83
2023-06-30T23:24:53.011Z,11.87
2023-06-30T23:27:03.782Z,11.63
2023-06-30T23:29:06.842Z,12.00
2023-06-30T23:31:08.924Z,12.90
2023-06-30T23:33:10.997Z,11.57
2023-06-30T23:35:14.332Z,10.77
2023-06-30T23:37:18.230Z,12.07
2023-06-30T23:39:20.698Z,13.23
2023-06-30T23:41:23.304Z,11.53
2023-06-30T23:43:25.314Z,11.90
2023-06-30T23:45:27.368Z,11.60
2023-06-30T23:47:29.383Z,11.80
2023-06-30T23:49:32.298Z,11.60
2023-06-30T23:51:34.419Z,11.73
2023-06-30T23:53:36.429Z,11.60
2023-06-30T23:55:38.456Z,11.07
2023-06-30T23:57:40.563Z,11.40
2023-06-30T23:59:42.579Z,12.73
